首页
METAR-TAF:

METAR-TAF

机场 :

地拉那特蕾莎修女國際機場

地拉那, 阿尔巴尼亚

纬度: 41-20N, 经度: 019-47E, 海拔: 89米

当前天气观测

该预报发布于29分钟前的21:50 UTC
风速3节,风向东南,在东转东南之间变化
温度 7°C
湿度 81%
气压 1007 hPa
能见度10公里或以上
散云层高于8600英尺

METAR: LATI 112150Z 13003KT 110V170 9999 SCT086 07/04 Q1007 NOSIG

时间: 23:19 (22:19 UTC)

预报

该预报发布于5小时和19分钟前的17:00 UTC
预报有效从11日的 18点(UTC)到 12日的 18点(UTC)
风速3节,风向多变
能见度10公里或以上
散云层高于9000英尺
成为
从 12日的 13点(UTC)到 12日的 15点(UTC)
风速8节,风向南转南东
多云层高于5000英尺
阴天层高于8000英尺
小雨

TAF: LATI 111700Z 1118/1218 VRB03KT 9999 SCT090 BECMG 1213/1215 16008KT -RA BKN050 OVC080

超过4000个机场的气象观测和天气预报(METAR&TAF报告)。

可查询的气象台以黄色和红色小点在地图上表示。

将鼠标移到小点上方,可查看气象台名称。

然后点击查看天气观测和预报。

如需切换地图:点击带黑十字的绿色按钮放大地图;点击带横线的绿色按钮缩小地图;或者点击绿色箭头查看邻近地区的地图。


METAR-TAF: